Time;durP1;ratioP1;P1;durP2;ratioP2;P2;SDS_P1;SDS_P2;PMS_P1;PMS_P2;Temp;Humidity;BMP_temperature;BMP_pressure;BME280_temperature;BME280_humidity;BME280_pressure;Samples;Min_cycle;Max_cycle;Signal;HPM_P1;HPM_P2
2023/12/16 00:01:09;;;;;;;12.88;4.88;;;;;;;-144.57;100.00;62443.72;5032890;28;20056;-62
2023/12/16 00:03:35;;;;;;;25.17;5.75;;;;;;;-144.57;100.00;62443.72;5031988;28;20044;-61
2023/12/16 00:06:01;;;;;;;14.45;4.47;;;;;;;-144.57;100.00;62443.72;5023298;28;20107;-62
2023/12/16 00:08:27;;;;;;;22.10;5.63;;;;;;;-144.57;100.00;62443.72;5013942;28;20041;-62
2023/12/16 00:10:53;;;;;;;15.18;5.15;;;;;;;-144.57;100.00;62443.72;5032156;28;20033;-62
2023/12/16 00:13:19;;;;;;;21.40;6.57;;;;;;;-144.57;100.00;62443.72;5032905;28;20491;-61
2023/12/16 00:15:45;;;;;;;16.80;5.38;;;;;;;-144.57;100.00;62443.72;5032869;28;20033;-63
2023/12/16 00:18:11;;;;;;;12.70;5.15;;;;;;;-144.57;100.00;62443.72;5032655;28;20502;-60
2023/12/16 00:20:36;;;;;;;17.02;4.75;;;;;;;-144.57;100.00;62443.72;5014728;28;20087;-62
2023/12/16 00:23:02;;;;;;;14.13;5.28;;;;;;;-144.57;100.00;62443.72;5032471;28;20446;-62
2023/12/16 00:25:28;;;;;;;9.45;4.40;;;;;;;-144.57;100.00;62443.72;5013712;28;20388;-63
2023/12/16 00:27:54;;;;;;;14.77;5.25;;;;;;;-144.57;100.00;62443.72;5032112;28;20040;-61
2023/12/16 00:30:20;;;;;;;17.90;5.72;;;;;;;-144.57;100.00;62443.72;5032080;28;20091;-62
2023/12/16 00:32:46;;;;;;;15.10;5.10;;;;;;;-144.57;100.00;62443.72;5032679;28;20056;-62
2023/12/16 00:35:11;;;;;;;17.85;5.50;;;;;;;-144.57;100.00;62443.72;5032454;28;20037;-63
2023/12/16 00:37:37;;;;;;;12.32;5.38;;;;;;;-144.57;100.00;62443.72;5032251;28;20152;-62
2023/12/16 00:40:03;;;;;;;19.15;5.63;;;;;;;-144.57;100.00;62443.72;5032226;28;20099;-63
2023/12/16 00:42:31;;;;;;;16.20;4.40;;;;;;;-144.57;100.00;62443.72;5014948;28;20053;-63
2023/12/16 00:44:57;;;;;;;16.55;4.72;;;;;;;-144.57;100.00;62443.72;5032102;28;20045;-63
2023/12/16 00:47:23;;;;;;;18.08;5.00;;;;;;;-144.57;100.00;62443.72;5036583;28;20136;-62
2023/12/16 00:49:49;;;;;;;10.40;4.90;;;;;;;-144.57;100.00;62443.72;5049581;28;20082;-62
2023/12/16 00:52:15;;;;;;;18.00;5.05;;;;;;;-144.57;100.00;62443.72;4998261;28;20092;-63
2023/12/16 00:54:41;;;;;;;17.92;5.00;;;;;;;-144.57;100.00;62443.72;5044836;28;20398;-62
2023/12/16 00:57:07;;;;;;;14.52;5.05;;;;;;;-144.57;100.00;62443.72;5034158;28;20440;-62
2023/12/16 00:59:33;;;;;;;16.42;4.55;;;;;;;-144.57;100.00;62443.72;5033973;28;20331;-62
2023/12/16 01:01:59;;;;;;;15.30;5.22;;;;;;;-144.57;100.00;62443.72;5033754;28;20036;-62
2023/12/16 01:04:25;;;;;;;18.33;4.75;;;;;;;-144.57;100.00;62443.72;5018735;28;20066;-62
2023/12/16 01:06:51;;;;;;;15.35;5.55;;;;;;;-144.57;100.00;62443.72;5030456;28;20060;-62
2023/12/16 01:09:17;;;;;;;11.85;4.20;;;;;;;-144.57;100.00;62443.72;5014064;28;20052;-62
2023/12/16 01:11:43;;;;;;;14.07;5.15;;;;;;;-144.57;100.00;62443.72;5014063;28;20076;-62
2023/12/16 01:14:09;;;;;;;12.10;4.70;;;;;;;-144.57;100.00;62443.72;5032006;28;20045;-62
2023/12/16 01:16:35;;;;;;;18.38;5.43;;;;;;;-144.57;100.00;62443.72;5013881;28;20034;-62
2023/12/16 01:19:00;;;;;;;10.55;4.50;;;;;;;-144.57;100.00;62443.72;5031865;28;20058;-62
2023/12/16 01:21:26;;;;;;;13.20;4.95;;;;;;;-144.57;100.00;62443.72;5046311;28;20037;-63
2023/12/16 01:23:52;;;;;;;11.00;4.57;;;;;;;-144.57;100.00;62443.72;5019636;28;20064;-64
2023/12/16 01:26:18;;;;;;;15.15;4.78;;;;;;;-144.57;100.00;62443.72;5031506;28;20037;-63
2023/12/16 01:28:43;;;;;;;11.23;4.65;;;;;;;-144.57;100.00;62443.72;5031635;28;20045;-62
2023/12/16 01:31:09;;;;;;;15.43;4.80;;;;;;;-144.57;100.00;62443.72;5030294;28;20045;-62
2023/12/16 01:33:35;;;;;;;16.15;4.80;;;;;;;-144.57;100.00;62443.72;5017488;28;20041;-62
2023/12/16 01:36:01;;;;;;;13.27;5.22;;;;;;;-144.57;100.00;62443.72;5040445;28;20514;-62
2023/12/16 01:38:27;;;;;;;14.90;4.97;;;;;;;-144.57;100.00;62443.72;5029741;28;20064;-61
2023/12/16 01:40:53;;;;;;;7.13;5.00;;;;;;;-144.57;100.00;62443.72;5029424;28;20080;-63
2023/12/16 01:43:19;;;;;;;14.27;5.38;;;;;;;-144.57;100.00;62443.72;5012538;28;20509;-62
2023/12/16 01:45:45;;;;;;;8.95;4.40;;;;;;;-144.57;100.00;62443.72;5013032;28;20038;-63
2023/12/16 01:48:11;;;;;;;16.23;6.32;;;;;;;-144.57;100.00;62443.72;5012754;28;20128;-61
2023/12/16 01:50:37;;;;;;;12.77;4.82;;;;;;;-144.57;100.00;62443.72;5029924;28;20041;-62
2023/12/16 01:53:04;;;;;;;14.10;4.60;;;;;;;-144.57;100.00;62443.72;5012464;28;20049;-63
2023/12/16 01:55:31;;;;;;;13.80;4.72;;;;;;;-144.57;100.00;62443.72;4964118;28;20041;-61
2023/12/16 01:57:57;;;;;;;17.85;4.50;;;;;;;-144.57;100.00;62443.72;5030022;28;20099;-62
2023/12/16 02:00:23;;;;;;;16.83;4.90;;;;;;;-144.57;100.00;62443.72;5012200;28;20042;-63
2023/12/16 02:02:49;;;;;;;10.00;4.53;;;;;;;-144.57;100.00;62443.72;5030502;28;20081;-62
2023/12/16 02:05:15;;;;;;;17.27;4.78;;;;;;;-144.57;100.00;62443.72;5029908;28;20095;-64
2023/12/16 02:07:43;;;;;;;18.02;4.35;;;;;;;-144.57;100.00;62443.72;5030238;28;20049;-61
2023/12/16 02:10:09;;;;;;;11.73;4.28;;;;;;;-144.57;100.00;62443.72;5030143;28;20065;-61
2023/12/16 02:12:36;;;;;;;10.75;4.75;;;;;;;-144.57;100.00;62443.72;5030165;28;20045;-62
2023/12/16 02:15:03;;;;;;;9.32;3.90;;;;;;;-144.57;100.00;62443.72;5030670;28;20037;-62
2023/12/16 02:17:39;;;;;;;15.57;5.10;;;;;;;-144.57;100.00;62443.72;4997335;28;20422;-63
2023/12/16 02:20:26;;;;;;;13.02;4.80;;;;;;;-144.57;100.00;62443.72;5016282;28;20518;-62
2023/12/16 02:22:53;;;;;;;12.70;5.03;;;;;;;-144.57;100.00;62443.72;5033429;28;20067;-62
2023/12/16 02:25:19;;;;;;;10.30;4.65;;;;;;;-144.57;100.00;62443.72;5033717;28;20037;-62
2023/12/16 02:27:45;;;;;;;15.10;4.63;;;;;;;-144.57;100.00;62443.72;5033614;28;20111;-64
2023/12/16 02:30:12;;;;;;;19.25;4.88;;;;;;;-144.57;100.00;62443.72;4991014;28;1232370;-62
2023/12/16 02:32:41;;;;;;;11.68;5.13;;;;;;;-144.57;100.00;62443.72;5034695;28;20037;-62
2023/12/16 02:35:07;;;;;;;14.20;4.88;;;;;;;-144.57;100.00;62443.72;5034847;28;20423;-61
2023/12/16 02:37:33;;;;;;;14.43;5.00;;;;;;;-144.57;100.00;62443.72;5034648;28;20041;-62
2023/12/16 02:39:59;;;;;;;16.90;4.85;;;;;;;-144.57;100.00;62443.72;5034702;28;20042;-63
2023/12/16 02:42:25;;;;;;;17.15;5.07;;;;;;;-144.57;100.00;62443.72;5034505;28;20068;-61
2023/12/16 02:44:51;;;;;;;21.55;5.53;;;;;;;-144.57;100.00;62443.72;5000780;28;20048;-62
2023/12/16 02:47:16;;;;;;;14.95;5.75;;;;;;;-144.57;100.00;62443.72;5015824;28;20053;-64
2023/12/16 02:49:44;;;;;;;10.25;5.05;;;;;;;-144.57;100.00;62443.72;5034289;28;20095;-63
2023/12/16 02:52:10;;;;;;;21.20;5.82;;;;;;;-144.57;100.00;62443.72;5017287;28;20099;-63
2023/12/16 02:54:37;;;;;;;14.52;4.30;;;;;;;-144.57;100.00;62443.72;5016893;28;20045;-62
2023/12/16 02:57:04;;;;;;;16.17;5.03;;;;;;;-144.57;100.00;62443.72;5034262;28;20511;-62
2023/12/16 02:59:30;;;;;;;16.08;5.28;;;;;;;-144.57;100.00;62443.72;5034022;28;20055;-62
2023/12/16 03:01:56;;;;;;;11.38;5.22;;;;;;;-144.57;100.00;62443.72;5016567;28;20041;-62
2023/12/16 03:04:22;;;;;;;20.27;5.28;;;;;;;-144.57;100.00;62443.72;5033382;28;20053;-62
2023/12/16 03:06:48;;;;;;;14.52;4.55;;;;;;;-144.57;100.00;62443.72;5033585;28;20450;-64
2023/12/16 03:09:13;;;;;;;12.90;5.50;;;;;;;-144.57;100.00;62443.72;5015983;28;20068;-63
2023/12/16 03:11:39;;;;;;;10.90;5.03;;;;;;;-144.57;100.00;62443.72;5015724;28;20043;-63
2023/12/16 03:14:05;;;;;;;11.35;5.10;;;;;;;-144.57;100.00;62443.72;5034174;28;20118;-63
2023/12/16 03:16:34;;;;;;;14.57;5.13;;;;;;;-144.57;100.00;62443.72;5016380;28;20053;-63
2023/12/16 03:19:00;;;;;;;14.15;5.47;;;;;;;-144.57;100.00;62443.72;5033769;28;20136;-63
2023/12/16 03:21:26;;;;;;;14.48;5.10;;;;;;;-144.57;100.00;62443.72;5033006;28;20133;-64
2023/12/16 03:23:52;;;;;;;12.95;6.38;;;;;;;-144.57;100.00;62443.72;5015948;28;20095;-62
2023/12/16 03:26:18;;;;;;;9.27;4.78;;;;;;;-144.57;100.00;62443.72;4999382;28;20072;-62
2023/12/16 03:28:43;;;;;;;14.68;5.20;;;;;;;-144.57;100.00;62443.72;5033349;28;20046;-61
2023/12/16 03:31:09;;;;;;;14.40;5.53;;;;;;;-144.57;100.00;62443.72;5029570;28;20064;-61
2023/12/16 03:33:35;;;;;;;12.15;5.45;;;;;;;-144.57;100.00;62443.72;5033484;28;20218;-62
2023/12/16 03:36:01;;;;;;;14.13;5.03;;;;;;;-144.57;100.00;62443.72;5015495;28;20052;-63
2023/12/16 03:38:27;;;;;;;16.38;6.53;;;;;;;-144.57;100.00;62443.72;5033147;28;20045;-62
2023/12/16 03:40:53;;;;;;;13.63;5.95;;;;;;;-144.57;100.00;62443.72;5015540;28;20045;-61
2023/12/16 03:43:19;;;;;;;15.85;6.38;;;;;;;-144.57;100.00;62443.72;5033378;28;20076;-62
2023/12/16 03:45:45;;;;;;;15.90;5.50;;;;;;;-144.57;100.00;62443.72;5032811;28;20503;-62
2023/12/16 03:48:11;;;;;;;14.30;6.28;;;;;;;-144.57;100.00;62443.72;5032923;28;20045;-62
2023/12/16 03:50:37;;;;;;;15.15;6.00;;;;;;;-144.57;100.00;62443.72;5015217;28;20087;-65
2023/12/16 03:53:03;;;;;;;20.35;6.68;;;;;;;-144.57;100.00;62443.72;5032825;28;20037;-63
2023/12/16 03:55:28;;;;;;;19.90;6.00;;;;;;;-144.57;100.00;62443.72;5033073;28;20400;-61
2023/12/16 03:57:54;;;;;;;12.88;5.93;;;;;;;-144.57;100.00;62443.72;5031732;28;20495;-62
2023/12/16 04:00:20;;;;;;;18.02;6.60;;;;;;;-144.57;100.00;62443.72;5032872;28;20084;-63
2023/12/16 04:02:45;;;;;;;17.40;7.97;;;;;;;-144.57;100.00;62443.72;5014764;28;20175;-63
2023/12/16 04:05:12;;;;;;;13.35;6.53;;;;;;;-144.57;100.00;62443.72;5032865;28;20063;-62
2023/12/16 04:07:38;;;;;;;17.55;6.57;;;;;;;-144.57;100.00;62443.72;5032350;28;20512;-62
2023/12/16 04:10:05;;;;;;;22.33;7.00;;;;;;;-144.57;100.00;62443.72;5032933;28;20069;-63
2023/12/16 04:12:31;;;;;;;13.23;6.50;;;;;;;-144.57;100.00;62443.72;5032615;28;20049;-62
2023/12/16 04:14:58;;;;;;;18.17;7.28;;;;;;;-144.57;100.00;62443.72;5032505;28;20051;-63
2023/12/16 04:17:24;;;;;;;18.90;6.93;;;;;;;-144.57;100.00;62443.72;5014151;28;20049;-62
2023/12/16 04:19:51;;;;;;;21.45;7.68;;;;;;;-144.57;100.00;62443.72;5032201;28;20068;-62
2023/12/16 04:22:17;;;;;;;19.20;7.57;;;;;;;-144.57;100.00;62443.72;5032491;28;20131;-61
2023/12/16 04:24:44;;;;;;;15.32;6.63;;;;;;;-144.57;100.00;62443.72;5031749;28;20045;-62
2023/12/16 04:27:09;;;;;;;23.35;7.88;;;;;;;-144.57;100.00;62443.72;5032191;28;20049;-62
2023/12/16 04:29:35;;;;;;;22.02;7.20;;;;;;;-144.57;100.00;62443.72;5031816;28;20049;-62
2023/12/16 04:32:02;;;;;;;26.23;7.65;;;;;;;-144.57;100.00;62443.72;5014136;28;20132;-62
2023/12/16 04:34:28;;;;;;;21.58;7.80;;;;;;;-144.57;100.00;62443.72;5031740;28;20096;-62
2023/12/16 04:36:53;;;;;;;18.50;7.47;;;;;;;-144.57;100.00;62443.72;5014262;28;20041;-63
2023/12/16 04:39:19;;;;;;;18.50;9.15;;;;;;;-144.57;100.00;62443.72;5013613;28;20041;-62
2023/12/16 04:41:45;;;;;;;24.92;8.27;;;;;;;-144.57;100.00;62443.72;5014191;28;20038;-63
2023/12/16 04:44:10;;;;;;;18.70;7.72;;;;;;;-144.57;100.00;62443.72;5031821;28;20541;-62
2023/12/16 04:46:36;;;;;;;22.67;8.32;;;;;;;-144.57;100.00;62443.72;5031672;28;20053;-63
2023/12/16 04:49:02;;;;;;;19.60;8.40;;;;;;;-144.57;100.00;62443.72;5032229;28;20560;-62
2023/12/16 04:51:28;;;;;;;24.08;9.07;;;;;;;-144.57;100.00;62443.72;5035653;28;20690;-63
2023/12/16 04:53:56;;;;;;;19.65;7.68;;;;;;;-144.57;100.00;62443.72;5031683;28;20453;-62
2023/12/16 04:56:22;;;;;;;23.05;8.80;;;;;;;-144.57;100.00;62443.72;4997013;28;20379;-62
2023/12/16 04:58:48;;;;;;;22.85;8.88;;;;;;;-144.57;100.00;62443.72;5031316;28;20041;-62
2023/12/16 05:01:14;;;;;;;24.50;9.75;;;;;;;-144.57;100.00;62443.72;4997876;28;20129;-62
2023/12/16 05:03:41;;;;;;;19.52;7.43;;;;;;;-144.57;100.00;62443.72;5014212;28;20128;-62
2023/12/16 05:06:08;;;;;;;24.77;8.23;;;;;;;-144.57;100.00;62443.72;5031771;28;20545;-63
2023/12/16 05:08:33;;;;;;;21.13;8.27;;;;;;;-144.57;100.00;62443.72;5032080;28;20045;-62
2023/12/16 05:10:59;;;;;;;30.10;9.05;;;;;;;-144.57;100.00;62443.72;5031932;28;20045;-61
2023/12/16 05:13:25;;;;;;;21.10;8.13;;;;;;;-144.57;100.00;62443.72;5048711;28;20079;-62
2023/12/16 05:15:53;;;;;;;23.20;9.23;;;;;;;-144.57;100.00;62443.72;5006059;28;20132;-61
2023/12/16 05:18:19;;;;;;;23.35;8.32;;;;;;;-144.57;100.00;62443.72;5014044;28;20067;-61
2023/12/16 05:20:46;;;;;;;19.77;8.65;;;;;;;-144.57;100.00;62443.72;5031979;28;20499;-63
2023/12/16 05:23:14;;;;;;;17.00;8.07;;;;;;;-144.57;100.00;62443.72;5031624;28;20049;-63
2023/12/16 05:25:41;;;;;;;33.63;13.23;;;;;;;-144.57;100.00;62443.72;5031496;28;20046;-63
2023/12/16 05:28:08;;;;;;;19.65;8.00;;;;;;;-144.57;100.00;62443.72;5031328;28;20049;-63
2023/12/16 05:30:34;;;;;;;25.58;9.18;;;;;;;-144.57;100.00;62443.72;5031664;28;20119;-61
2023/12/16 05:32:59;;;;;;;21.88;8.98;;;;;;;-144.57;100.00;62443.72;5015428;28;20049;-63
2023/12/16 05:35:25;;;;;;;25.92;8.60;;;;;;;-144.57;100.00;62443.72;5032542;28;20054;-62
2023/12/16 05:37:51;;;;;;;25.55;8.95;;;;;;;-144.57;100.00;62443.72;5014853;28;20076;-61
2023/12/16 05:40:17;;;;;;;21.90;8.68;;;;;;;-144.57;100.00;62443.72;5031998;28;20446;-63
2023/12/16 05:42:44;;;;;;;24.15;8.45;;;;;;;-144.57;100.00;62443.72;5033190;28;20041;-61
2023/12/16 05:45:10;;;;;;;20.35;9.45;;;;;;;-144.57;100.00;62443.72;5032448;28;20053;-63
2023/12/16 05:47:36;;;;;;;22.05;8.48;;;;;;;-144.57;100.00;62443.72;5031775;28;20502;-62
2023/12/16 05:50:03;;;;;;;22.15;7.63;;;;;;;-144.57;100.00;62443.72;5013804;28;20419;-61
2023/12/16 05:52:31;;;;;;;19.55;8.50;;;;;;;-144.57;100.00;62443.72;5012748;28;20045;-62
2023/12/16 05:54:58;;;;;;;23.98;9.57;;;;;;;-144.57;100.00;62443.72;5030231;28;20076;-63
2023/12/16 05:57:24;;;;;;;17.67;8.13;;;;;;;-144.57;100.00;62443.72;5016842;28;20038;-61
2023/12/16 05:59:50;;;;;;;20.77;9.02;;;;;;;-144.57;100.00;62443.72;5034860;28;20424;-64
2023/12/16 06:02:16;;;;;;;23.98;8.85;;;;;;;-144.57;100.00;62443.72;5034548;28;20093;-62
2023/12/16 06:04:42;;;;;;;19.23;7.50;;;;;;;-144.57;100.00;62443.72;5034626;28;20096;-63
2023/12/16 06:07:08;;;;;;;27.50;9.10;;;;;;;-144.57;100.00;62443.72;5016355;28;20167;-62
2023/12/16 06:09:34;;;;;;;23.10;8.85;;;;;;;-144.57;100.00;62443.72;5035141;28;20494;-62
2023/12/16 06:12:00;;;;;;;20.65;8.82;;;;;;;-144.57;100.00;62443.72;5017193;28;20042;-62
2023/12/16 06:14:26;;;;;;;22.73;8.25;;;;;;;-144.57;100.00;62443.72;5035124;28;20060;-62
2023/12/16 06:16:51;;;;;;;25.42;8.68;;;;;;;-144.57;100.00;62443.72;5034366;28;20076;-63
2023/12/16 06:19:17;;;;;;;22.00;10.45;;;;;;;-144.57;100.00;62443.72;5035233;28;20049;-61
2023/12/16 06:21:43;;;;;;;22.55;8.57;;;;;;;-144.57;100.00;62443.72;5034807;28;20045;-64
2023/12/16 06:24:10;;;;;;;19.42;8.13;;;;;;;-144.57;100.00;62443.72;5034862;28;20442;-63
2023/12/16 06:26:36;;;;;;;22.88;9.60;;;;;;;-144.57;100.00;62443.72;5034738;28;20049;-61
2023/12/16 06:29:02;;;;;;;20.92;9.07;;;;;;;-144.57;100.00;62443.72;5017075;28;20513;-63
2023/12/16 06:31:27;;;;;;;23.60;9.02;;;;;;;-144.57;100.00;62443.72;5016850;28;20057;-61
2023/12/16 06:33:53;;;;;;;19.23;8.02;;;;;;;-144.57;100.00;62443.72;5017030;28;20132;-62
2023/12/16 06:36:19;;;;;;;23.88;9.05;;;;;;;-144.57;100.00;62443.72;5033870;28;20083;-60
2023/12/16 06:38:45;;;;;;;19.70;8.75;;;;;;;-144.57;100.00;62443.72;5016818;28;20087;-62
2023/12/16 06:41:11;;;;;;;20.05;7.97;;;;;;;-144.57;100.00;62443.72;5034354;28;20073;-63
2023/12/16 06:43:36;;;;;;;25.63;9.05;;;;;;;-144.57;100.00;62443.72;5015890;28;20049;-61
2023/12/16 06:46:02;;;;;;;26.23;9.88;;;;;;;-144.57;100.00;62443.72;5034480;28;20144;-63
2023/12/16 06:48:28;;;;;;;16.92;8.65;;;;;;;-144.57;100.00;62443.72;5015774;28;20048;-61
2023/12/16 06:50:57;;;;;;;22.08;9.00;;;;;;;-144.57;100.00;62443.72;5016764;28;20045;-63
2023/12/16 06:53:23;;;;;;;21.80;9.45;;;;;;;-144.57;100.00;62443.72;5034421;28;20072;-62
2023/12/16 06:55:49;;;;;;;19.80;8.52;;;;;;;-144.57;100.00;62443.72;5034251;28;20041;-63
2023/12/16 06:58:15;;;;;;;18.13;8.52;;;;;;;-144.57;100.00;62443.72;4999929;28;20436;-62
2023/12/16 07:00:40;;;;;;;22.13;8.73;;;;;;;-144.57;100.00;62443.72;5016248;28;20060;-63
2023/12/16 07:03:07;;;;;;;23.92;9.32;;;;;;;-144.57;100.00;62443.72;5034315;28;20120;-63
2023/12/16 07:05:34;;;;;;;20.10;9.68;;;;;;;-144.57;100.00;62443.72;5033946;28;20041;-63
2023/12/16 07:08:01;;;;;;;20.88;8.80;;;;;;;-144.57;100.00;62443.72;5033229;28;20041;-62
2023/12/16 07:10:28;;;;;;;24.92;9.27;;;;;;;-144.57;100.00;62443.72;5034169;28;20132;-63
2023/12/16 07:12:54;;;;;;;19.15;8.43;;;;;;;-144.57;100.00;62443.72;5005882;28;20053;-62
2023/12/16 07:15:20;;;;;;;19.20;8.25;;;;;;;-144.57;100.00;62443.72;5021801;28;20054;-63
2023/12/16 07:17:46;;;;;;;21.17;8.70;;;;;;;-144.57;100.00;62443.72;5033287;28;20041;-64
2023/12/16 07:20:12;;;;;;;23.00;9.48;;;;;;;-144.57;100.00;62443.72;5015901;28;20044;-63
2023/12/16 07:22:38;;;;;;;18.33;8.25;;;;;;;-144.57;100.00;62443.72;5033483;28;20041;-61
2023/12/16 07:25:04;;;;;;;17.80;8.55;;;;;;;-144.57;100.00;62443.72;5034221;28;20044;-63
2023/12/16 07:27:30;;;;;;;19.13;8.55;;;;;;;-144.57;100.00;62443.72;5015122;28;20045;-62
2023/12/16 07:29:57;;;;;;;19.70;8.90;;;;;;;-144.57;100.00;62443.72;5033297;28;20533;-61
2023/12/16 07:32:25;;;;;;;20.40;9.60;;;;;;;-144.57;100.00;62443.72;5015537;28;20123;-62
2023/12/16 07:34:51;;;;;;;22.40;9.05;;;;;;;-144.57;100.00;62443.72;5033625;28;20400;-62
2023/12/16 07:37:22;;;;;;;18.58;8.88;;;;;;;-144.57;100.00;62443.72;5033771;28;20051;-61
2023/12/16 07:39:51;;;;;;;20.88;8.73;;;;;;;-144.57;100.00;62443.72;4966797;28;20103;-62
2023/12/16 07:42:16;;;;;;;17.80;8.43;;;;;;;-144.57;100.00;62443.72;5033245;28;20415;-62
2023/12/16 07:44:42;;;;;;;20.10;8.57;;;;;;;-144.57;100.00;62443.72;5033545;28;20042;-65
2023/12/16 07:47:08;;;;;;;18.55;8.57;;;;;;;-144.57;100.00;62443.72;5015779;28;20477;-61
2023/12/16 07:49:34;;;;;;;20.70;8.50;;;;;;;-144.57;100.00;62443.72;5033236;28;20045;-63
2023/12/16 07:52:00;;;;;;;18.90;8.55;;;;;;;-144.57;100.00;62443.72;4996572;28;20095;-62
2023/12/16 07:54:29;;;;;;;23.65;9.10;;;;;;;-144.57;100.00;62443.72;5032618;28;20072;-63
2023/12/16 07:56:55;;;;;;;19.10;8.85;;;;;;;-144.57;100.00;62443.72;5030022;28;20483;-62
2023/12/16 07:59:21;;;;;;;18.92;8.90;;;;;;;-144.57;100.00;62443.72;5014943;28;20053;-62
2023/12/16 08:01:52;;;;;;;18.45;8.18;;;;;;;-144.57;100.00;62443.72;5015012;28;20191;-63
2023/12/16 08:04:18;;;;;;;23.27;8.93;;;;;;;-144.57;100.00;62443.72;4995787;28;20038;-63
2023/12/16 08:06:44;;;;;;;20.70;9.30;;;;;;;-144.57;100.00;62443.72;5014759;28;20045;-63
2023/12/16 08:09:10;;;;;;;23.58;10.18;;;;;;;-144.57;100.00;62443.72;5014918;28;20038;-62
2023/12/16 08:11:36;;;;;;;17.45;9.15;;;;;;;-144.57;100.00;62443.72;5032952;28;20067;-64
2023/12/16 08:14:02;;;;;;;23.35;10.15;;;;;;;-144.57;100.00;62443.72;5014918;28;20029;-62
2023/12/16 08:16:28;;;;;;;19.58;9.20;;;;;;;-144.57;100.00;62443.72;5014575;28;20048;-64
2023/12/16 08:18:54;;;;;;;23.05;9.23;;;;;;;-144.57;100.00;62443.72;5031835;28;20037;-61
2023/12/16 08:21:20;;;;;;;19.80;8.73;;;;;;;-144.57;100.00;62443.72;5032063;28;20546;-63
2023/12/16 08:23:47;;;;;;;17.60;8.15;;;;;;;-144.57;100.00;62443.72;5032658;28;20037;-63
2023/12/16 08:26:13;;;;;;;22.63;8.90;;;;;;;-144.57;100.00;62443.72;5014572;28;20507;-64
2023/12/16 08:28:40;;;;;;;18.67;8.85;;;;;;;-144.57;100.00;62443.72;5032187;28;20120;-62
2023/12/16 08:31:07;;;;;;;18.75;8.55;;;;;;;-144.57;100.00;62443.72;5014486;28;20156;-58
2023/12/16 08:33:34;;;;;;;20.13;8.60;;;;;;;-144.57;100.00;62443.72;5032402;28;20115;-61
2023/12/16 08:36:00;;;;;;;18.60;8.65;;;;;;;-144.57;100.00;62443.72;5032022;28;20091;-65
2023/12/16 08:38:25;;;;;;;22.08;9.25;;;;;;;-144.57;100.00;62443.72;5031558;28;20053;-63
2023/12/16 08:40:53;;;;;;;19.52;8.75;;;;;;;-144.57;100.00;62443.72;5031014;28;20037;-62
2023/12/16 08:43:19;;;;;;;22.65;8.68;;;;;;;-144.57;100.00;62443.72;4997440;28;20170;-64
2023/12/16 08:45:45;;;;;;;15.98;8.38;;;;;;;-144.57;100.00;62443.72;5011572;28;20088;-64
2023/12/16 08:48:11;;;;;;;25.63;9.65;;;;;;;-144.57;100.00;62443.72;5031636;28;20136;-63
2023/12/16 08:50:37;;;;;;;27.63;9.98;;;;;;;-144.57;100.00;62443.72;5032209;28;20095;-61
2023/12/16 08:53:03;;;;;;;17.35;8.45;;;;;;;-144.57;100.00;62443.72;5032072;28;20045;-62
2023/12/16 08:55:29;;;;;;;20.80;8.85;;;;;;;-144.57;100.00;62443.72;5013580;28;20091;-64
2023/12/16 08:57:55;;;;;;;16.58;8.55;;;;;;;-144.57;100.00;62443.72;5013556;28;20049;-64
2023/12/16 09:00:21;;;;;;;18.55;8.88;;;;;;;-144.57;100.00;62443.72;5032085;28;20052;-64
2023/12/16 09:02:47;;;;;;;22.17;9.15;;;;;;;-144.57;100.00;62443.72;5013579;28;20044;-64
2023/12/16 09:05:12;;;;;;;21.40;9.05;;;;;;;-144.57;100.00;62443.72;5031696;28;20045;-62
2023/12/16 09:07:38;;;;;;;16.75;8.98;;;;;;;-144.57;100.00;62443.72;5031805;28;20052;-61
2023/12/16 09:10:05;;;;;;;18.63;9.30;;;;;;;-144.57;100.00;62443.72;5014076;28;20033;-61
2023/12/16 09:12:31;;;;;;;21.10;9.40;;;;;;;-144.57;100.00;62443.72;5031869;28;20103;-61
2023/12/16 09:14:57;;;;;;;20.63;9.90;;;;;;;-144.57;100.00;62443.72;5031254;28;20503;-59
2023/12/16 09:17:23;;;;;;;20.27;9.32;;;;;;;-144.57;100.00;62443.72;5030390;28;20052;-60
2023/12/16 09:19:49;;;;;;;19.08;8.73;;;;;;;-144.57;100.00;62443.72;5013304;28;20111;-61
2023/12/16 09:22:16;;;;;;;20.13;9.35;;;;;;;-144.57;100.00;62443.72;5031731;28;20050;-61
2023/12/16 09:24:42;;;;;;;18.83;9.02;;;;;;;-144.57;100.00;62443.72;5031646;28;20100;-61
2023/12/16 09:27:08;;;;;;;19.40;9.48;;;;;;;-144.57;100.00;62443.72;5013415;28;20037;-58
2023/12/16 09:29:34;;;;;;;18.63;9.50;;;;;;;-144.57;100.00;62443.72;5012914;28;20042;-60
2023/12/16 09:32:01;;;;;;;19.52;9.65;;;;;;;-144.57;100.00;62443.72;5031451;28;20061;-57
2023/12/16 09:34:27;;;;;;;21.80;9.35;;;;;;;-144.57;100.00;62443.72;5013720;28;20418;-60
2023/12/16 09:36:53;;;;;;;17.75;8.63;;;;;;;-144.57;100.00;62443.72;5031295;28;20045;-60
2023/12/16 09:39:19;;;;;;;17.98;8.48;;;;;;;-144.57;100.00;62443.72;5031077;28;20053;-60
2023/12/16 09:41:45;;;;;;;15.18;8.48;;;;;;;-144.57;100.00;62443.72;5031482;28;20041;-62
2023/12/16 09:44:15;;;;;;;16.25;8.35;;;;;;;-144.57;100.00;62443.72;5031656;28;20038;-59
2023/12/16 09:46:42;;;;;;;16.10;7.75;;;;;;;-144.57;100.00;62443.72;5031365;28;20042;-60
2023/12/16 09:49:08;;;;;;;18.55;7.60;;;;;;;-144.57;100.00;62443.72;5013677;28;20442;-61
2023/12/16 09:51:34;;;;;;;15.05;7.80;;;;;;;-144.57;100.00;62443.72;5031473;28;20067;-62
2023/12/16 09:54:00;;;;;;;18.88;7.30;;;;;;;-144.57;100.00;62443.72;5031487;28;20052;-60
2023/12/16 09:56:27;;;;;;;16.02;7.05;;;;;;;-144.57;100.00;62443.72;5013377;28;20399;-62
2023/12/16 09:58:54;;;;;;;12.82;7.25;;;;;;;-144.57;100.00;62443.72;5030745;28;20045;-60
2023/12/16 10:01:20;;;;;;;18.38;7.05;;;;;;;-144.57;100.00;62443.72;5030912;28;20119;-60
2023/12/16 10:03:47;;;;;;;14.95;6.93;;;;;;;-144.57;100.00;62443.72;5029509;28;20041;-59
2023/12/16 10:06:14;;;;;;;14.35;7.00;;;;;;;-144.57;100.00;62443.72;5029468;28;20486;-61
2023/12/16 10:08:41;;;;;;;12.70;6.28;;;;;;;-144.57;100.00;62443.72;5030943;28;20053;-62
2023/12/16 10:11:07;;;;;;;15.40;6.50;;;;;;;-144.57;100.00;62443.72;5030973;28;20053;-64
2023/12/16 10:13:53;;;;;;;13.90;5.82;;;;;;;-144.57;100.00;62443.72;5030849;28;20048;-60
2023/12/16 10:16:26;;;;;;;11.93;6.50;;;;;;;-144.57;100.00;62443.72;5030250;28;20080;-57
2023/12/16 10:18:54;;;;;;;11.52;6.07;;;;;;;-144.57;100.00;62443.72;5028257;28;20053;-58
2023/12/16 10:21:24;;;;;;;10.20;5.53;;;;;;;-144.57;100.00;62443.72;5030443;28;20068;-59
2023/12/16 10:23:49;;;;;;;15.00;6.28;;;;;;;-144.57;100.00;62443.72;5030018;28;20042;-60
2023/12/16 10:26:16;;;;;;;13.73;6.90;;;;;;;-144.57;100.00;62443.72;5030778;28;20045;-62
2023/12/16 10:28:46;;;;;;;12.93;7.07;;;;;;;-144.57;100.00;62443.72;5030983;28;20061;-60
2023/12/16 10:31:17;;;;;;;15.30;7.00;;;;;;;-144.57;100.00;62443.72;5029996;28;20053;-60
2023/12/16 10:33:42;;;;;;;13.65;7.07;;;;;;;-144.57;100.00;62443.72;5030851;28;20041;-60
2023/12/16 10:36:09;;;;;;;11.70;6.65;;;;;;;-144.57;100.00;62443.72;5013388;28;20037;-61
2023/12/16 10:38:35;;;;;;;13.13;6.60;;;;;;;-144.57;100.00;62443.72;5030963;28;20140;-60
2023/12/16 10:41:01;;;;;;;12.23;7.35;;;;;;;-144.57;100.00;62443.72;5030868;28;20057;-61
2023/12/16 10:43:27;;;;;;;13.57;6.57;;;;;;;-144.57;100.00;62443.72;5034534;28;20041;-61
2023/12/16 10:45:53;;;;;;;11.85;6.15;;;;;;;-144.57;100.00;62443.72;5016124;28;20042;-61
2023/12/16 10:48:23;;;;;;;11.15;5.75;;;;;;;-144.57;100.00;62443.72;5034513;28;20411;-61
2023/12/16 10:50:48;;;;;;;12.07;5.53;;;;;;;-144.57;100.00;62443.72;5016530;28;20414;-60
2023/12/16 10:53:24;;;;;;;10.50;6.05;;;;;;;-144.57;100.00;62443.72;5000465;28;20056;-60
2023/12/16 10:55:54;;;;;;;10.10;5.80;;;;;;;-144.57;100.00;62443.72;5016618;28;20054;-60
2023/12/16 10:58:27;;;;;;;11.93;5.97;;;;;;;-144.57;100.00;62443.72;5016534;28;20049;-60